Time;durP1;ratioP1;P1;durP2;ratioP2;P2;SDS_P1;SDS_P2;PMS_P1;PMS_P2;Temp;Humidity;BMP_temperature;BMP_pressure;BME280_temperature;BME280_humidity;BME280_pressure;Samples;Min_cycle;Max_cycle;Signal;HPM_P1;HPM_P2
2022/03/02 00:00:11;;;;;;;21.15;10.57;;;8.80;92.00;;;;;;10484803;28;20475;-65
2022/03/02 00:05:13;;;;;;;19.48;10.68;;;8.80;92.00;;;;;;10467205;28;20024;-65
2022/03/02 00:10:14;;;;;;;19.42;9.77;;;8.80;92.00;;;;;;10475256;28;20079;-63
2022/03/02 00:15:14;;;;;;;22.38;11.15;;;8.70;92.00;;;;;;10481044;28;20488;-65
2022/03/02 00:20:15;;;;;;;20.15;10.15;;;8.70;92.00;;;;;;10483550;28;20033;-63
2022/03/02 00:25:16;;;;;;;21.83;10.60;;;8.90;92.10;;;;;;10485007;28;20031;-62
2022/03/02 00:30:16;;;;;;;21.33;10.38;;;8.80;92.10;;;;;;10484238;28;20057;-63
2022/03/02 00:35:17;;;;;;;21.88;10.50;;;8.80;92.10;;;;;;10484895;28;20503;-61
2022/03/02 00:40:18;;;;;;;20.13;10.48;;;8.80;92.10;;;;;;10484625;28;20041;-66
2022/03/02 00:45:19;;;;;;;21.30;9.70;;;8.70;92.30;;;;;;10484222;28;20020;-65
2022/03/02 00:50:20;;;;;;;22.45;11.30;;;8.70;92.10;;;;;;10484733;28;20024;-63
2022/03/02 00:55:21;;;;;;;22.95;11.07;;;8.70;92.10;;;;;;10484423;28;20416;-63
2022/03/02 01:00:22;;;;;;;19.15;10.60;;;8.70;92.10;;;;;;10489432;28;20101;-65
2022/03/02 01:05:23;;;;;;;20.10;10.77;;;8.70;92.20;;;;;;10492261;28;20428;-65
2022/03/02 01:10:24;;;;;;;26.10;10.70;;;8.70;92.20;;;;;;10490912;28;20040;-64
2022/03/02 01:15:24;;;;;;;20.85;11.10;;;8.70;92.20;;;;;;10489843;28;20207;-64
2022/03/02 01:20:25;;;;;;;20.35;10.13;;;8.80;92.20;;;;;;10489616;28;20025;-65
2022/03/02 01:25:26;;;;;;;20.05;10.48;;;8.70;92.20;;;;;;10503152;28;20051;-62
2022/03/02 01:30:27;;;;;;;20.27;10.65;;;8.70;92.20;;;;;;10490202;28;20068;-64
2022/03/02 01:35:27;;;;;;;24.00;10.82;;;8.70;92.20;;;;;;10490863;28;20082;-65
2022/03/02 01:40:28;;;;;;;19.60;10.73;;;8.70;92.20;;;;;;10480427;28;20367;-66
2022/03/02 01:45:29;;;;;;;19.65;10.90;;;8.70;92.30;;;;;;10466886;28;20025;-64
2022/03/02 01:50:31;;;;;;;20.38;10.20;;;8.70;92.30;;;;;;10490118;28;20425;-63
2022/03/02 01:55:31;;;;;;;20.83;10.98;;;8.70;92.30;;;;;;10488432;28;20048;-65
2022/03/02 02:00:32;;;;;;;23.77;11.02;;;8.70;92.30;;;;;;10489824;28;20483;-63
2022/03/02 02:05:33;;;;;;;23.33;10.77;;;8.60;92.30;;;;;;10488573;28;20032;-62
2022/03/02 02:10:35;;;;;;;22.00;11.35;;;8.60;92.30;;;;;;10489218;28;20087;-63
2022/03/02 02:15:36;;;;;;;21.60;10.00;;;8.60;92.30;;;;;;10488965;28;20031;-65
2022/03/02 02:20:38;;;;;;;22.95;10.82;;;8.60;92.30;;;;;;10480728;28;20032;-64
2022/03/02 02:25:38;;;;;;;24.40;11.07;;;7.80;92.20;;;;;;10490059;28;20387;-62
2022/03/02 02:30:41;;;;;;;20.15;10.90;;;8.60;92.40;;;;;;10489561;28;20052;-62
2022/03/02 02:35:42;;;;;;;23.48;10.98;;;8.60;92.40;;;;;;10489488;28;20082;-66
2022/03/02 02:40:43;;;;;;;22.15;11.15;;;8.60;92.40;;;;;;10489053;28;20555;-64
2022/03/02 02:45:45;;;;;;;22.60;11.80;;;8.60;92.40;;;;;;10481862;28;20113;-64
2022/03/02 02:50:46;;;;;;;22.35;11.70;;;8.60;92.40;;;;;;10489813;28;20040;-65
2022/03/02 02:55:47;;;;;;;22.80;10.70;;;8.60;92.40;;;;;;10488119;28;20074;-63
2022/03/02 03:00:52;;;;;;;21.52;11.10;;;8.60;92.40;;;;;;10487246;28;20118;-62
2022/03/02 03:05:53;;;;;;;23.95;11.30;;;8.60;92.40;;;;;;10487078;28;20019;-63
2022/03/02 03:10:53;;;;;;;22.30;11.77;;;8.60;92.40;;;;;;10486625;28;20055;-61
2022/03/02 03:15:54;;;;;;;23.08;10.32;;;8.60;92.40;;;;;;10486104;28;20024;-63
2022/03/02 03:20:55;;;;;;;23.88;11.63;;;8.60;92.40;;;;;;10484922;28;20028;-62
2022/03/02 03:25:56;;;;;;;23.90;11.45;;;8.60;92.50;;;;;;10486823;28;20037;-62
2022/03/02 03:30:56;;;;;;;23.50;12.23;;;8.60;92.50;;;;;;10486666;28;20052;-65
2022/03/02 03:35:57;;;;;;;23.52;10.93;;;8.60;92.50;;;;;;10486104;28;20410;-64
2022/03/02 03:40:58;;;;;;;20.92;11.40;;;8.60;92.50;;;;;;10486344;28;20036;-64
2022/03/02 03:45:59;;;;;;;23.10;11.27;;;8.50;92.50;;;;;;10485386;28;20052;-65
2022/03/02 03:51:00;;;;;;;22.48;11.65;;;8.60;92.50;;;;;;10486124;28;20119;-66
2022/03/02 03:56:00;;;;;;;23.73;11.57;;;8.50;92.50;;;;;;10485432;28;20021;-63
2022/03/02 04:01:01;;;;;;;24.02;11.43;;;8.50;92.50;;;;;;10484833;28;20017;-66
2022/03/02 04:06:03;;;;;;;23.20;11.98;;;8.50;92.50;;;;;;10485348;28;20025;-64
2022/03/02 04:11:03;;;;;;;27.60;11.85;;;8.50;92.50;;;;;;10486425;28;20052;-65
2022/03/02 04:16:05;;;;;;;25.60;12.32;;;8.50;92.50;;;;;;10485224;28;20031;-66
2022/03/02 04:21:06;;;;;;;25.83;11.95;;;8.50;92.60;;;;;;10484130;28;20020;-65
2022/03/02 04:26:07;;;;;;;22.95;11.13;;;8.50;92.60;;;;;;10486230;28;20024;-63
2022/03/02 04:31:07;;;;;;;26.02;11.90;;;8.60;92.60;;;;;;10485234;28;20087;-65
2022/03/02 04:36:09;;;;;;;27.58;12.05;;;8.60;92.60;;;;;;10486735;28;20037;-65
2022/03/02 04:41:11;;;;;;;24.70;11.98;;;8.50;92.60;;;;;;10486269;28;20088;-63
2022/03/02 04:46:11;;;;;;;23.20;11.80;;;8.50;92.60;;;;;;10484193;28;20540;-63
2022/03/02 04:51:12;;;;;;;24.52;11.18;;;8.50;92.60;;;;;;10484312;28;20045;-63
2022/03/02 04:56:13;;;;;;;23.00;11.80;;;8.50;92.60;;;;;;10484226;28;20139;-62
2022/03/02 05:01:14;;;;;;;24.23;11.63;;;8.60;92.70;;;;;;10475251;28;20028;-64
2022/03/02 05:06:14;;;;;;;24.77;10.88;;;8.40;92.60;;;;;;10476344;28;20027;-66
2022/03/02 05:11:15;;;;;;;23.98;11.90;;;8.40;92.60;;;;;;10474170;28;20144;-63
2022/03/02 05:16:16;;;;;;;25.83;11.52;;;8.40;92.60;;;;;;10482468;28;20025;-62
2022/03/02 05:21:17;;;;;;;27.08;12.25;;;8.40;92.70;;;;;;10483732;28;20114;-66
2022/03/02 05:26:18;;;;;;;25.92;12.13;;;8.40;92.70;;;;;;10482984;28;20712;-66
2022/03/02 05:31:20;;;;;;;24.83;12.15;;;8.60;92.80;;;;;;10480057;28;20135;-65
2022/03/02 05:36:21;;;;;;;24.35;12.25;;;8.40;92.70;;;;;;10484231;28;20037;-65
2022/03/02 05:41:22;;;;;;;30.55;13.10;;;8.40;92.70;;;;;;10482919;28;20032;-65
2022/03/02 05:46:23;;;;;;;26.10;11.88;;;8.40;92.70;;;;;;10485949;28;20020;-64
2022/03/02 05:51:23;;;;;;;24.08;12.10;;;8.40;92.70;;;;;;10490328;28;20044;-62
2022/03/02 05:56:25;;;;;;;29.27;12.60;;;8.40;92.70;;;;;;10489954;28;20375;-66
2022/03/02 06:01:25;;;;;;;24.52;12.13;;;8.40;92.70;;;;;;10489512;28;20111;-64
2022/03/02 06:06:26;;;;;;;24.13;12.18;;;8.30;92.70;;;;;;10489685;28;20425;-64
2022/03/02 06:11:28;;;;;;;28.27;12.52;;;8.40;92.80;;;;;;10489732;28;20037;-66
2022/03/02 06:16:28;;;;;;;23.83;12.13;;;8.30;92.80;;;;;;10488982;28;20037;-65
2022/03/02 06:21:30;;;;;;;24.40;11.68;;;8.30;92.80;;;;;;10487989;28;20066;-65
2022/03/02 06:26:31;;;;;;;24.13;12.52;;;8.30;92.80;;;;;;10488818;28;20494;-64
2022/03/02 06:31:33;;;;;;;27.65;12.10;;;8.30;92.80;;;;;;10488912;28;20316;-63
2022/03/02 06:36:34;;;;;;;24.75;13.35;;;8.30;92.80;;;;;;10485293;28;20319;-63
2022/03/02 06:41:59;;;;;;;29.55;13.10;;;8.30;92.80;;;;;;10488604;28;20040;-62
2022/03/02 06:47:09;;;;;;;26.10;12.05;;;8.30;93.10;;;;;;10488095;28;20008;-63
2022/03/02 06:52:10;;;;;;;27.42;12.75;;;8.20;92.80;;;;;;10470844;28;20036;-61
2022/03/02 06:57:15;;;;;;;25.15;11.98;;;8.20;92.80;;;;;;10486116;28;20033;-65
2022/03/02 07:02:39;;;;;;;27.70;12.95;;;8.20;92.80;;;;;;10486324;28;20032;-64
2022/03/02 07:07:40;;;;;;;27.85;12.98;;;8.20;92.80;;;;;;10474920;28;20598;-65
2022/03/02 07:12:41;;;;;;;26.45;13.52;;;8.20;92.80;;;;;;10484391;28;20033;-63
2022/03/02 07:17:41;;;;;;;28.27;13.65;;;8.20;92.80;;;;;;10486502;28;20037;-65
2022/03/02 07:22:54;;;;;;;27.65;13.07;;;8.20;92.80;;;;;;10471936;28;20039;-64
2022/03/02 07:27:57;;;;;;;26.52;12.40;;;8.30;92.80;;;;;;10484962;28;20541;-64
2022/03/02 07:33:01;;;;;;;27.45;13.18;;;8.20;92.70;;;;;;10483486;28;20071;-63
2022/03/02 07:38:03;;;;;;;27.38;12.90;;;8.20;92.70;;;;;;10485328;28;20532;-63
2022/03/02 07:43:04;;;;;;;27.92;12.65;;;8.30;92.70;;;;;;10473526;28;20052;-64
2022/03/02 07:48:05;;;;;;;23.75;12.38;;;8.30;92.70;;;;;;10485651;28;20063;-66
2022/03/02 07:53:07;;;;;;;27.60;12.73;;;8.30;92.70;;;;;;10486685;28;20101;-64
2022/03/02 07:58:08;;;;;;;27.20;12.48;;;8.30;92.70;;;;;;10484944;28;20024;-64
2022/03/02 08:03:10;;;;;;;31.02;12.65;;;8.40;92.70;;;;;;10476674;28;20291;-63
2022/03/02 08:08:11;;;;;;;25.83;12.23;;;8.30;92.70;;;;;;10450574;28;20033;-65
2022/03/02 08:13:15;;;;;;;27.42;12.50;;;8.40;92.70;;;;;;10453745;28;20032;-66
2022/03/02 08:18:17;;;;;;;25.60;12.20;;;8.40;92.70;;;;;;10461478;28;20490;-66
2022/03/02 08:23:19;;;;;;;27.52;12.50;;;8.40;92.60;;;;;;10455265;28;20025;-64
2022/03/02 08:28:21;;;;;;;28.50;12.40;;;8.40;92.60;;;;;;10461505;28;20249;-65
2022/03/02 08:33:29;;;;;;;31.33;14.07;;;8.40;92.60;;;;;;10465528;28;20129;-65
2022/03/02 08:38:30;;;;;;;27.80;12.73;;;8.40;92.60;;;;;;10449953;28;20044;-68
2022/03/02 08:43:32;;;;;;;26.50;12.10;;;8.40;92.60;;;;;;10454288;28;20035;-67
2022/03/02 08:48:34;;;;;;;26.30;12.93;;;8.40;92.60;;;;;;10463241;28;20403;-67
2022/03/02 08:53:34;;;;;;;28.23;13.27;;;8.40;92.60;;;;;;10459535;28;20079;-65
2022/03/02 08:58:38;;;;;;;30.35;13.65;;;8.40;92.60;;;;;;10445975;28;20037;-64
2022/03/02 09:03:43;;;;;;;25.42;12.35;;;8.40;92.60;;;;;;10468833;28;20523;-65
2022/03/02 09:08:43;;;;;;;26.60;11.98;;;8.40;92.60;;;;;;10476470;28;20160;-72
2022/03/02 09:13:44;;;;;;;26.75;12.10;;;8.50;92.70;;;;;;10450681;28;20042;-69
2022/03/02 09:18:45;;;;;;;26.08;11.68;;;8.60;92.70;;;;;;10484713;28;20040;-65
2022/03/02 09:23:46;;;;;;;25.73;12.93;;;8.60;92.60;;;;;;10487880;28;20494;-71
2022/03/02 09:28:51;;;;;;;24.35;11.52;;;8.60;92.70;;;;;;10468277;28;20037;-69
2022/03/02 09:33:58;;;;;;;26.55;12.50;;;8.50;92.60;;;;;;10487926;28;20058;-70
2022/03/02 09:38:59;;;;;;;25.98;12.00;;;8.60;92.70;;;;;;10480455;28;20261;-68
2022/03/02 09:44:00;;;;;;;23.88;11.27;;;8.60;92.70;;;;;;10488574;28;20074;-69
2022/03/02 09:49:07;;;;;;;28.85;12.40;;;8.60;92.70;;;;;;10488033;28;20020;-70
2022/03/02 09:54:08;;;;;;;25.45;12.10;;;8.60;92.70;;;;;;10476012;28;20289;-71
2022/03/02 09:59:09;;;;;;;28.75;11.90;;;8.60;92.60;;;;;;10487897;28;20025;-71
2022/03/02 10:04:21;;;;;;;25.92;12.05;;;8.60;92.50;;;;;;10488857;28;20083;-70
2022/03/02 10:09:27;;;;;;;26.92;12.45;;;8.70;92.50;;;;;;10475947;28;20047;-70
2022/03/02 10:14:28;;;;;;;24.73;11.70;;;8.80;92.40;;;;;;10488241;28;20036;-68
2022/03/02 10:19:31;;;;;;;26.73;11.80;;;8.90;92.30;;;;;;10486847;28;20033;-68
2022/03/02 10:24:42;;;;;;;21.50;10.98;;;9.00;92.20;;;;;;10475943;28;20397;-69
2022/03/02 10:30:12;;;;;;;21.00;10.10;;;9.10;92.10;;;;;;10474362;28;20444;-70
2022/03/02 10:35:13;;;;;;;21.95;10.20;;;9.30;92.00;;;;;;10488317;28;20068;-70
2022/03/02 10:40:17;;;;;;;27.58;11.43;;;9.30;91.80;;;;;;10488253;28;20404;-69
2022/03/02 10:45:19;;;;;;;25.35;10.23;;;9.50;91.70;;;;;;10483809;28;20040;-70
2022/03/02 10:50:22;;;;;;;21.58;10.13;;;9.60;91.70;;;;;;10486854;28;20046;-70
2022/03/02 10:55:24;;;;;;;18.40;10.40;;;9.70;91.60;;;;;;10486545;28;20048;-69
2022/03/02 11:00:25;;;;;;;18.75;9.07;;;9.80;91.70;;;;;;10486273;28;20496;-69
2022/03/02 11:05:29;;;;;;;18.60;8.75;;;9.90;91.30;;;;;;10477566;28;20026;-70
2022/03/02 11:10:33;;;;;;;20.38;9.70;;;10.00;91.20;;;;;;10484705;28;20036;-70
2022/03/02 11:15:49;;;;;;;16.70;8.45;;;10.10;91.20;;;;;;10474620;28;20029;-69
2022/03/02 11:21:05;;;;;;;19.40;9.00;;;10.10;90.90;;;;;;10463550;28;20069;-66
2022/03/02 11:26:11;;;;;;;17.10;7.90;;;10.20;90.90;;;;;;10478359;28;20025;-71
2022/03/02 11:31:16;;;;;;;17.58;8.13;;;10.30;91.30;;;;;;10485519;28;20040;-69
2022/03/02 11:36:19;;;;;;;17.48;8.13;;;10.30;91.00;;;;;;10484607;28;20020;-73
2022/03/02 11:41:33;;;;;;;17.40;9.15;;;10.40;90.90;;;;;;10485509;28;20089;-64
2022/03/02 11:46:34;;;;;;;17.83;7.97;;;10.50;90.90;;;;;;10473632;28;20024;-70
2022/03/02 11:51:35;;;;;;;15.43;7.97;;;10.50;90.90;;;;;;10484712;28;20401;-69
2022/03/02 11:56:39;;;;;;;15.70;7.82;;;10.60;90.90;;;;;;10484559;28;20550;-71
2022/03/02 12:01:50;;;;;;;25.55;10.35;;;10.60;90.90;;;;;;10476617;28;20144;-63
2022/03/02 12:06:53;;;;;;;21.33;11.40;;;10.60;86.10;;;;;;10450831;28;20021;-66
2022/03/02 12:12:10;;;;;;;22.80;9.93;;;10.30;84.20;;;;;;10459923;28;20041;-66
2022/03/02 12:17:17;;;;;;;23.58;10.90;;;10.00;81.10;;;;;;10446058;28;20410;-68
2022/03/02 12:22:18;;;;;;;26.77;10.82;;;10.00;85.40;;;;;;10479276;28;20021;-69
2022/03/02 12:27:19;;;;;;;25.20;11.18;;;10.10;84.90;;;;;;10468644;28;20483;-72
2022/03/02 12:32:21;;;;;;;21.20;10.05;;;10.00;80.70;;;;;;10482924;28;20052;-73
2022/03/02 12:37:22;;;;;;;21.85;9.85;;;9.90;81.50;;;;;;10476712;28;20088;-66
2022/03/02 12:42:24;;;;;;;22.35;11.00;;;10.10;81.50;;;;;;10476203;28;20086;-73
2022/03/02 12:47:32;;;;;;;27.02;10.98;;;10.10;79.50;;;;;;10478307;28;20025;-70
2022/03/02 12:52:33;;;;;;;28.95;12.52;;;10.20;78.50;;;;;;10483512;28;20514;-70
2022/03/02 12:57:36;;;;;;;26.83;12.15;;;10.10;79.10;;;;;;10466359;28;20107;-74
2022/03/02 13:02:38;;;;;;;25.42;10.82;;;10.20;78.60;;;;;;10489942;28;20096;-73
2022/03/02 13:08:05;;;;;;;23.90;11.57;;;10.20;74.50;;;;;;10490629;28;20027;-70
2022/03/02 13:13:07;;;;;;;23.15;10.70;;;10.20;74.80;;;;;;10489221;28;20379;-71
2022/03/02 13:18:11;;;;;;;23.20;10.70;;;10.30;76.70;;;;;;10473568;28;20401;-71
2022/03/02 13:23:26;;;;;;;20.33;10.27;;;10.50;75.80;;;;;;10489006;28;20036;-66
2022/03/02 13:28:31;;;;;;;23.60;11.00;;;10.50;74.30;;;;;;10488808;28;20052;-74
2022/03/02 13:33:51;;;;;;;24.33;10.57;;;10.60;75.00;;;;;;10476594;28;20489;-69
2022/03/02 13:38:52;;;;;;;22.10;10.15;;;10.60;72.70;;;;;;10489823;28;20081;-75
2022/03/02 13:43:52;;;;;;;26.13;11.50;;;10.60;74.20;;;;;;10478245;28;20032;-75
2022/03/02 13:48:54;;;;;;;21.13;10.88;;;10.70;74.10;;;;;;10489558;28;20025;-71
2022/03/02 13:54:00;;;;;;;26.30;10.38;;;10.70;72.50;;;;;;10490509;28;20040;-77
2022/03/02 13:59:11;;;;;;;24.88;10.80;;;10.70;69.70;;;;;;10485451;28;20044;-78
2022/03/02 14:04:18;;;;;;;24.25;11.27;;;10.60;70.50;;;;;;10488665;28;20107;-76
2022/03/02 14:09:19;;;;;;;19.67;10.55;;;10.80;70.60;;;;;;10485821;28;20029;-78
2022/03/02 14:14:29;;;;;;;21.52;9.25;;;11.00;70.00;;;;;;10488132;28;20033;-76
2022/03/02 14:19:41;;;;;;;22.17;10.45;;;11.20;69.10;;;;;;10486961;28;20020;-76
2022/03/02 14:24:45;;;;;;;21.95;9.55;;;11.30;67.30;;;;;;10487427;28;20028;-79
2022/03/02 14:30:08;;;;;;;21.65;10.73;;;11.50;68.20;;;;;;10487009;28;20191;-77
2022/03/02 14:35:12;;;;;;;25.23;10.82;;;11.70;66.00;;;;;;10500965;28;20082;-78
2022/03/02 14:40:14;;;;;;;22.02;10.15;;;11.70;67.50;;;;;;10487164;28;20035;-78
2022/03/02 14:45:17;;;;;;;22.63;9.95;;;11.70;67.60;;;;;;10463286;28;20111;-69
2022/03/02 14:50:31;;;;;;;22.10;10.43;;;11.70;67.20;;;;;;10431075;28;20037;-71
2022/03/02 14:55:42;;;;;;;20.27;9.50;;;11.60;66.00;;;;;;10447819;28;20028;-72
2022/03/02 15:00:53;;;;;;;21.60;9.52;;;11.40;64.40;;;;;;10457867;28;20523;-70
2022/03/02 15:06:06;;;;;;;19.52;9.75;;;11.40;65.70;;;;;;10435930;28;20017;-69
2022/03/02 15:11:20;;;;;;;20.20;9.35;;;11.30;65.00;;;;;;10452706;28;20032;-81
2022/03/02 15:16:21;;;;;;;21.10;9.60;;;11.20;63.60;;;;;;10453683;28;20021;-81
2022/03/02 15:21:24;;;;;;;20.92;9.60;;;11.30;66.00;;;;;;10449105;28;20107;-76
2022/03/02 15:26:25;;;;;;;18.42;9.27;;;11.30;65.50;;;;;;10454448;28;20037;-81
2022/03/02 15:31:26;;;;;;;22.67;10.32;;;11.20;66.00;;;;;;10445522;28;20076;-81
2022/03/02 15:36:27;;;;;;;19.13;9.15;;;11.10;65.50;;;;;;10451430;28;20521;-79
2022/03/02 15:41:29;;;;;;;16.42;8.40;;;10.70;65.40;;;;;;10456867;28;20146;-77
2022/03/02 15:46:29;;;;;;;17.90;9.20;;;10.40;66.10;;;;;;10460417;28;20033;-80
2022/03/02 15:51:30;;;;;;;17.77;8.57;;;10.20;66.30;;;;;;10462384;28;20047;-81
2022/03/02 15:56:31;;;;;;;18.80;9.57;;;10.10;66.80;;;;;;10484116;28;20021;-77
2022/03/02 16:01:32;;;;;;;17.58;8.32;;;10.00;67.40;;;;;;10482441;28;20032;-78
2022/03/02 16:06:34;;;;;;;18.45;8.75;;;9.90;68.00;;;;;;10457339;28;20501;-66
2022/03/02 16:11:42;;;;;;;18.25;8.82;;;9.80;68.40;;;;;;10475670;28;20039;-69
2022/03/02 16:16:46;;;;;;;18.98;8.55;;;9.70;67.60;;;;;;10470497;28;20616;-73
2022/03/02 16:21:50;;;;;;;17.30;9.15;;;9.70;68.60;;;;;;10466069;28;20498;-73
2022/03/02 16:26:50;;;;;;;20.17;9.23;;;9.60;68.70;;;;;;10464530;28;20061;-70
2022/03/02 16:31:51;;;;;;;24.17;11.75;;;9.60;69.40;;;;;;10480944;28;20037;-73
2022/03/02 16:36:52;;;;;;;17.95;9.13;;;9.40;69.20;;;;;;10469076;28;20037;-73
2022/03/02 16:41:52;;;;;;;18.77;8.90;;;9.30;69.50;;;;;;10456803;28;20098;-71
2022/03/02 16:46:54;;;;;;;18.50;8.98;;;9.20;70.20;;;;;;10473751;28;20055;-68
2022/03/02 16:51:55;;;;;;;20.10;9.45;;;9.40;71.10;;;;;;10465256;28;20048;-69
2022/03/02 16:56:56;;;;;;;16.42;8.60;;;9.70;71.80;;;;;;10473111;28;20017;-68
2022/03/02 17:01:57;;;;;;;20.30;9.52;;;9.90;72.30;;;;;;10471523;28;20044;-73
2022/03/02 17:06:58;;;;;;;15.90;8.05;;;10.10;72.80;;;;;;10482411;28;20575;-70
2022/03/02 17:11:59;;;;;;;17.50;8.60;;;10.20;73.10;;;;;;10482377;28;20066;-74
2022/03/02 17:16:59;;;;;;;19.30;8.70;;;10.20;73.50;;;;;;10481461;28;20033;-68
2022/03/02 17:22:00;;;;;;;17.50;8.02;;;10.30;73.90;;;;;;10481248;28;20031;-68
2022/03/02 17:27:01;;;;;;;14.48;7.50;;;10.40;74.50;;;;;;10481515;28;20033;-69
2022/03/02 17:32:02;;;;;;;16.13;8.20;;;10.40;74.80;;;;;;10481685;28;20056;-69
2022/03/02 17:37:04;;;;;;;16.58;7.88;;;10.40;75.20;;;;;;10457845;28;20509;-69
2022/03/02 17:42:06;;;;;;;16.83;8.05;;;10.50;75.70;;;;;;10451836;28;20091;-70
2022/03/02 17:47:09;;;;;;;16.73;7.85;;;10.50;76.10;;;;;;10456376;28;20541;-70
2022/03/02 17:52:10;;;;;;;15.25;7.80;;;10.40;76.50;;;;;;10456434;28;20041;-75
2022/03/02 17:57:11;;;;;;;18.00;8.20;;;10.40;76.90;;;;;;10461521;28;20025;-66
2022/03/02 18:02:12;;;;;;;18.30;8.18;;;10.50;77.60;;;;;;10468451;28;20029;-69
2022/03/02 18:07:13;;;;;;;18.15;7.72;;;10.50;77.50;;;;;;10452479;28;20021;-68
2022/03/02 18:12:14;;;;;;;15.65;7.47;;;10.40;77.60;;;;;;10487173;28;20032;-66
2022/03/02 18:17:15;;;;;;;15.88;7.40;;;10.40;77.70;;;;;;10470189;28;20380;-69
2022/03/02 18:22:16;;;;;;;18.48;8.93;;;10.40;77.90;;;;;;10473583;28;20483;-70
2022/03/02 18:27:16;;;;;;;18.65;8.90;;;10.30;78.20;;;;;;10486416;28;20037;-73
2022/03/02 18:32:17;;;;;;;16.60;7.90;;;10.30;80.60;;;;;;10479746;28;20052;-68
2022/03/02 18:37:18;;;;;;;26.25;10.10;;;10.40;80.40;;;;;;10494754;28;20024;-63
2022/03/02 18:42:19;;;;;;;27.27;10.70;;;11.10;82.00;;;;;;10451539;28;20032;-63
2022/03/02 18:47:21;;;;;;;27.05;10.95;;;10.50;83.10;;;;;;10451722;28;20021;-61
2022/03/02 18:52:22;;;;;;;27.95;11.07;;;10.60;83.40;;;;;;10443491;28;20029;-63
2022/03/02 18:57:22;;;;;;;26.45;10.25;;;10.60;83.50;;;;;;10458414;28;20017;-65
2022/03/02 19:02:24;;;;;;;24.63;10.07;;;10.60;84.00;;;;;;10454402;28;20025;-63
2022/03/02 19:07:27;;;;;;;23.92;10.48;;;10.50;84.40;;;;;;10464396;28;20059;-62
2022/03/02 19:12:27;;;;;;;28.65;10.52;;;10.40;84.70;;;;;;10484624;28;20274;-63
2022/03/02 19:17:28;;;;;;;25.42;10.27;;;10.40;85.40;;;;;;10479702;28;20436;-62
2022/03/02 19:22:29;;;;;;;24.67;10.68;;;10.40;85.40;;;;;;10483656;28;20030;-64
2022/03/02 19:27:29;;;;;;;21.83;10.07;;;10.30;84.70;;;;;;10480711;28;20397;-62
2022/03/02 19:32:30;;;;;;;23.88;10.25;;;10.30;84.80;;;;;;10482389;28;20048;-64
2022/03/02 19:37:31;;;;;;;23.88;10.85;;;10.20;84.80;;;;;;10478873;28;20040;-63
2022/03/02 19:42:36;;;;;;;20.17;10.27;;;10.20;84.80;;;;;;10479256;28;20113;-62
2022/03/02 19:47:59;;;;;;;25.42;11.27;;;10.20;84.80;;;;;;10478562;28;20127;-64
2022/03/02 19:53:01;;;;;;;25.38;11.50;;;10.10;84.50;;;;;;10467953;28;20402;-62
2022/03/02 19:58:03;;;;;;;21.98;10.63;;;10.10;84.80;;;;;;10470345;28;20020;-63
2022/03/02 20:03:05;;;;;;;23.15;10.57;;;10.00;84.80;;;;;;10478778;28;20028;-62
2022/03/02 20:08:05;;;;;;;21.35;10.57;;;10.00;85.50;;;;;;10476131;28;20036;-64
2022/03/02 20:13:06;;;;;;;17.77;9.40;;;9.90;85.00;;;;;;10481073;28;20384;-62
2022/03/02 20:18:07;;;;;;;22.00;11.70;;;9.90;85.10;;;;;;10479961;28;20025;-63
2022/03/02 20:23:09;;;;;;;25.40;11.40;;;9.90;85.20;;;;;;10478502;28;20031;-63
2022/03/02 20:28:13;;;;;;;22.15;10.43;;;9.80;85.20;;;;;;10465406;28;20021;-64
2022/03/02 20:33:15;;;;;;;25.05;10.65;;;9.60;85.20;;;;;;10449420;28;20045;-64
2022/03/02 20:38:19;;;;;;;20.05;10.48;;;9.80;85.40;;;;;;10455771;28;20031;-64
2022/03/02 20:43:21;;;;;;;24.20;10.25;;;9.80;85.50;;;;;;10461742;28;20033;-60
2022/03/02 20:48:22;;;;;;;28.90;12.13;;;9.70;85.50;;;;;;10459872;28;20124;-64
2022/03/02 20:53:23;;;;;;;23.55;11.52;;;9.70;85.60;;;;;;10458153;28;20027;-63
2022/03/02 20:58:24;;;;;;;24.05;10.55;;;9.60;85.80;;;;;;10460389;28;20052;-64
2022/03/02 21:03:27;;;;;;;25.40;11.60;;;9.60;85.90;;;;;;10476594;28;20132;-61
2022/03/02 21:08:28;;;;;;;24.27;11.60;;;9.60;85.90;;;;;;10481237;28;20059;-63
2022/03/02 21:13:31;;;;;;;23.48;11.10;;;9.60;86.00;;;;;;10482036;28;20132;-64
2022/03/02 21:18:32;;;;;;;24.88;12.32;;;9.50;86.00;;;;;;10489817;28;20490;-64
2022/03/02 21:23:33;;;;;;;24.25;11.68;;;9.50;86.00;;;;;;10488772;28;20505;-64
2022/03/02 21:28:34;;;;;;;22.08;11.40;;;9.50;86.10;;;;;;10488608;28;20028;-62
2022/03/02 21:33:35;;;;;;;25.42;11.07;;;9.40;86.20;;;;;;10466604;28;20059;-63
2022/03/02 21:38:36;;;;;;;22.98;11.52;;;9.40;86.20;;;;;;10459556;28;20021;-63
2022/03/02 21:43:37;;;;;;;24.35;11.07;;;9.40;86.30;;;;;;10473979;28;20055;-63
2022/03/02 21:48:37;;;;;;;22.58;11.52;;;9.30;86.30;;;;;;10469978;28;20021;-63
2022/03/02 21:53:38;;;;;;;25.95;11.75;;;9.30;86.40;;;;;;10487767;28;20075;-63
2022/03/02 21:58:39;;;;;;;24.67;11.60;;;9.30;86.40;;;;;;10489138;28;20020;-62
2022/03/02 22:03:40;;;;;;;23.55;11.38;;;9.30;86.50;;;;;;10487715;28;20062;-62
2022/03/02 22:08:40;;;;;;;26.05;11.55;;;9.20;86.60;;;;;;10486247;28;20081;-62
2022/03/02 22:13:41;;;;;;;21.63;11.15;;;9.20;86.60;;;;;;10487860;28;20052;-62
2022/03/02 22:18:42;;;;;;;24.05;11.07;;;9.20;86.70;;;;;;10463319;28;20017;-63
2022/03/02 22:23:42;;;;;;;26.95;10.88;;;9.10;86.70;;;;;;10469180;28;20052;-64
2022/03/02 22:28:43;;;;;;;25.40;11.85;;;9.10;86.80;;;;;;10464435;28;20565;-62
2022/03/02 22:33:44;;;;;;;24.13;11.82;;;9.10;86.80;;;;;;10457810;28;20517;-64
2022/03/02 22:38:45;;;;;;;22.95;11.40;;;9.10;86.90;;;;;;10488397;28;20042;-64
2022/03/02 22:43:45;;;;;;;23.48;11.35;;;9.00;87.00;;;;;;10466013;28;20036;-62
2022/03/02 22:48:46;;;;;;;24.02;11.27;;;9.00;87.00;;;;;;10477216;28;20020;-64
2022/03/02 22:53:47;;;;;;;26.23;11.73;;;8.90;87.10;;;;;;10475055;28;20530;-63
2022/03/02 22:58:49;;;;;;;25.90;12.10;;;8.90;87.10;;;;;;10485235;28;20016;-63
2022/03/02 23:03:49;;;;;;;23.20;11.98;;;8.90;87.20;;;;;;10478369;28;20059;-64
2022/03/02 23:14:11;;;;;;;26.88;12.13;;;8.90;87.40;;;;;;10486812;28;20399;-63
2022/03/02 23:19:12;;;;;;;28.35;12.32;;;8.80;87.40;;;;;;10486697;28;20025;-64
2022/03/02 23:24:12;;;;;;;23.63;11.65;;;8.80;87.60;;;;;;10486283;28;20036;-63
2022/03/02 23:29:13;;;;;;;25.10;12.27;;;8.90;87.60;;;;;;10487029;28;20032;-62
2022/03/02 23:34:14;;;;;;;23.13;11.93;;;8.80;87.70;;;;;;10486568;28;20495;-63
2022/03/02 23:39:15;;;;;;;29.88;12.82;;;8.80;87.80;;;;;;10468741;28;20033;-64
2022/03/02 23:44:15;;;;;;;26.13;12.20;;;8.70;87.80;;;;;;10486782;28;20025;-63
2022/03/02 23:49:16;;;;;;;26.05;12.45;;;8.70;87.90;;;;;;10486611;28;20036;-63
2022/03/02 23:54:18;;;;;;;28.42;12.93;;;8.70;88.00;;;;;;10486400;28;20044;-64
2022/03/02 23:59:20;;;;;;;26.50;12.50;;;8.70;88.20;;;;;;10473237;28;20104;-63
